Airfield :
LOGIN :

Register | Disclaimer

   EN    FR    IT 

 










Legend :    VFR   Marginal VFR   IFR   Intensive IFR   Very Intensive IFR
Visi :
Ceiling :
>= 8 km
>= 3000ft
5 to 8 km
1000 to 3000 ft
1500m to 5 km
500 to 1000 ft
800 to 1500m
200 to 500 ft
< 800m
< 200 ft
Symbols :   Thunderstorms  Fog  Heavy snow  Heavy precipitations  Wind > 20 kt
SIGMETs :     Misc.  Thunderstorms  Icing  Turbulence  Mountain Waves  Volcanic Ashes







- Airport Elevation : 526 ft
- IATA code : LTN
- Download approach charts


EGGW - London Luton

CURRENT METAR :
  • 190420Z AUTO 02008KT 6000 NCD 07/06 Q1027

EXPIRED METARs :
  • 190350Z AUTO 02007KT 8000 NCD 07/05 Q1027
  • 190320Z AUTO 02007KT 8000 NCD 07/05 Q1027
  • 190250Z AUTO 02009KT 8000 NCD 08/06 Q1027
  • 190220Z AUTO 02009KT 360V060 9999 NCD 08/06 Q1026
  • 190150Z AUTO 02008KT 9999 NCD 09/06 Q1026

TAF TAF EGGW
Valid from the 19 at 00:00 until the 20 at 00:00 UTC


182253Z 1900/1924 04006KT CAVOK
PROB30 1900/1909 8000
BECMG 1910/1913 10010KT
BECMG 1921/1924 04004KT
TEMPO 1921/1924 8000
ATIS : +44 1582 395 204
No reported NOTAMs for that airfield.



MET'MAP, your aeronautical weather chart ! - Copyright ORBIFLY December 2007 - Disclaimer

ORBIFLY MET'MAP TEAM :

Programming & Development : Alexandra Zaïnal
Concept & Development : Baudouin d'Aumeries
Co-Development & Prog : Marc-Olivier Méhu
Technical & hardware support : Manuel Goepfert

Contact : metmap@orbifly.com




SOURCES & CREDITS :

   NOAA